sensor_id;sensor_type;location;lat;lon;timestamp;temperature;humidity
45339;DHT22;31071;51.478;5.710;2023-07-31T00:02:23;16.30;99.90
45339;DHT22;31071;51.478;5.710;2023-07-31T00:04:49;16.10;99.90
45339;DHT22;31071;51.478;5.710;2023-07-31T00:07:15;16.30;99.90
45339;DHT22;31071;51.478;5.710;2023-07-31T00:09:40;16.50;99.90
45339;DHT22;31071;51.478;5.710;2023-07-31T00:12:06;16.30;99.90
45339;DHT22;31071;51.478;5.710;2023-07-31T00:14:32;16.20;99.90
45339;DHT22;31071;51.478;5.710;2023-07-31T00:16:57;16.20;99.90
45339;DHT22;31071;51.478;5.710;2023-07-31T00:19:23;16.30;99.90
45339;DHT22;31071;51.478;5.710;2023-07-31T00:21:49;16.20;99.90
45339;DHT22;31071;51.478;5.710;2023-07-31T00:24:14;16.20;99.90
45339;DHT22;31071;51.478;5.710;2023-07-31T00:26:40;16.30;99.90
45339;DHT22;31071;51.478;5.710;2023-07-31T00:29:05;16.20;99.90
45339;DHT22;31071;51.478;5.710;2023-07-31T00:31:31;17.50;99.90
45339;DHT22;31071;51.478;5.710;2023-07-31T00:33:57;16.30;99.90
45339;DHT22;31071;51.478;5.710;2023-07-31T00:36:22;16.40;99.90
45339;DHT22;31071;51.478;5.710;2023-07-31T00:38:48;16.20;99.90
45339;DHT22;31071;51.478;5.710;2023-07-31T00:41:14;16.20;99.90
45339;DHT22;31071;51.478;5.710;2023-07-31T00:43:40;16.20;99.90
45339;DHT22;31071;51.478;5.710;2023-07-31T00:46:06;16.20;99.90
45339;DHT22;31071;51.478;5.710;2023-07-31T00:48:32;18.10;99.90
45339;DHT22;31071;51.478;5.710;2023-07-31T00:50:58;16.30;99.90
45339;DHT22;31071;51.478;5.710;2023-07-31T00:53:24;17.40;99.90
45339;DHT22;31071;51.478;5.710;2023-07-31T00:55:51;16.20;99.90
45339;DHT22;31071;51.478;5.710;2023-07-31T00:58:17;16.30;99.90
45339;DHT22;31071;51.478;5.710;2023-07-31T01:00:42;16.30;99.90
45339;DHT22;31071;51.478;5.710;2023-07-31T01:03:09;16.40;99.90
45339;DHT22;31071;51.478;5.710;2023-07-31T01:05:54;16.30;99.90
45339;DHT22;31071;51.478;5.710;2023-07-31T01:08:41;16.30;99.90
45339;DHT22;31071;51.478;5.710;2023-07-31T01:11:31;16.30;99.90
45339;DHT22;31071;51.478;5.710;2023-07-31T01:13:58;16.30;99.90
45339;DHT22;31071;51.478;5.710;2023-07-31T01:16:27;16.30;99.90
45339;DHT22;31071;51.478;5.710;2023-07-31T01:18:53;16.20;99.90
45339;DHT22;31071;51.478;5.710;2023-07-31T01:21:22;16.20;99.90
45339;DHT22;31071;51.478;5.710;2023-07-31T01:26:36;16.20;99.90
45339;DHT22;31071;51.478;5.710;2023-07-31T01:29:17;17.00;99.90
45339;DHT22;31071;51.478;5.710;2023-07-31T01:31:48;16.20;99.90
45339;DHT22;31071;51.478;5.710;2023-07-31T01:34:16;16.30;99.90
45339;DHT22;31071;51.478;5.710;2023-07-31T01:36:43;16.20;99.90
45339;DHT22;31071;51.478;5.710;2023-07-31T01:39:09;16.20;99.90
45339;DHT22;31071;51.478;5.710;2023-07-31T01:41:34;16.20;99.90
45339;DHT22;31071;51.478;5.710;2023-07-31T01:44:00;15.50;99.90
45339;DHT22;31071;51.478;5.710;2023-07-31T01:46:26;16.20;99.90
45339;DHT22;31071;51.478;5.710;2023-07-31T01:48:51;16.20;99.90
45339;DHT22;31071;51.478;5.710;2023-07-31T01:51:17;16.20;99.90
45339;DHT22;31071;51.478;5.710;2023-07-31T01:53:42;16.20;99.90
45339;DHT22;31071;51.478;5.710;2023-07-31T01:56:08;16.20;99.90
45339;DHT22;31071;51.478;5.710;2023-07-31T01:58:33;16.20;99.90
45339;DHT22;31071;51.478;5.710;2023-07-31T02:00:59;16.20;99.90
45339;DHT22;31071;51.478;5.710;2023-07-31T02:03:25;16.70;99.90
45339;DHT22;31071;51.478;5.710;2023-07-31T02:05:50;16.20;99.90
45339;DHT22;31071;51.478;5.710;2023-07-31T02:08:16;16.20;99.90
45339;DHT22;31071;51.478;5.710;2023-07-31T02:10:42;16.20;99.90
45339;DHT22;31071;51.478;5.710;2023-07-31T02:13:08;17.40;99.90
45339;DHT22;31071;51.478;5.710;2023-07-31T02:15:34;16.10;99.90
45339;DHT22;31071;51.478;5.710;2023-07-31T02:17:59;16.10;99.90
45339;DHT22;31071;51.478;5.710;2023-07-31T02:20:25;16.10;99.90
45339;DHT22;31071;51.478;5.710;2023-07-31T02:22:51;16.10;99.90
45339;DHT22;31071;51.478;5.710;2023-07-31T02:25:16;18.70;99.90
45339;DHT22;31071;51.478;5.710;2023-07-31T02:27:42;16.10;99.90
45339;DHT22;31071;51.478;5.710;2023-07-31T02:30:08;16.10;99.90
45339;DHT22;31071;51.478;5.710;2023-07-31T02:32:34;16.10;99.90
45339;DHT22;31071;51.478;5.710;2023-07-31T02:34:59;16.20;99.90
45339;DHT22;31071;51.478;5.710;2023-07-31T02:37:25;16.20;99.90
45339;DHT22;31071;51.478;5.710;2023-07-31T02:39:51;16.10;99.90
45339;DHT22;31071;51.478;5.710;2023-07-31T02:42:17;16.10;99.90
45339;DHT22;31071;51.478;5.710;2023-07-31T02:44:43;16.10;99.90
45339;DHT22;31071;51.478;5.710;2023-07-31T02:47:08;16.20;99.90
45339;DHT22;31071;51.478;5.710;2023-07-31T02:49:34;16.10;99.90
45339;DHT22;31071;51.478;5.710;2023-07-31T02:52:00;16.10;99.90
45339;DHT22;31071;51.478;5.710;2023-07-31T02:54:25;16.20;99.90
45339;DHT22;31071;51.478;5.710;2023-07-31T02:56:51;16.20;99.90
45339;DHT22;31071;51.478;5.710;2023-07-31T02:59:17;16.20;99.90
45339;DHT22;31071;51.478;5.710;2023-07-31T03:01:43;16.30;99.90
45339;DHT22;31071;51.478;5.710;2023-07-31T03:04:09;16.20;99.90
45339;DHT22;31071;51.478;5.710;2023-07-31T03:06:36;16.20;99.90
45339;DHT22;31071;51.478;5.710;2023-07-31T03:09:01;16.20;99.90
45339;DHT22;31071;51.478;5.710;2023-07-31T03:11:27;16.30;99.90
45339;DHT22;31071;51.478;5.710;2023-07-31T03:13:52;16.30;99.90
45339;DHT22;31071;51.478;5.710;2023-07-31T03:16:18;16.30;99.90
45339;DHT22;31071;51.478;5.710;2023-07-31T03:18:43;16.30;99.90
45339;DHT22;31071;51.478;5.710;2023-07-31T03:21:09;16.20;99.90
45339;DHT22;31071;51.478;5.710;2023-07-31T03:23:34;16.30;99.90
45339;DHT22;31071;51.478;5.710;2023-07-31T03:26:02;16.30;99.90
45339;DHT22;31071;51.478;5.710;2023-07-31T03:28:31;16.40;99.90
45339;DHT22;31071;51.478;5.710;2023-07-31T03:30:56;16.40;99.90
45339;DHT22;31071;51.478;5.710;2023-07-31T03:33:22;16.40;99.90
45339;DHT22;31071;51.478;5.710;2023-07-31T03:35:48;16.40;99.90
45339;DHT22;31071;51.478;5.710;2023-07-31T03:38:13;16.40;99.90
45339;DHT22;31071;51.478;5.710;2023-07-31T03:40:39;16.40;99.90
45339;DHT22;31071;51.478;5.710;2023-07-31T03:43:05;16.50;99.90
45339;DHT22;31071;51.478;5.710;2023-07-31T03:45:31;16.50;99.90
45339;DHT22;31071;51.478;5.710;2023-07-31T03:47:57;16.40;99.90
45339;DHT22;31071;51.478;5.710;2023-07-31T03:50:22;16.50;99.90
45339;DHT22;31071;51.478;5.710;2023-07-31T03:52:48;16.50;99.90
45339;DHT22;31071;51.478;5.710;2023-07-31T03:55:13;16.50;99.90
45339;DHT22;31071;51.478;5.710;2023-07-31T03:57:39;16.50;99.90
45339;DHT22;31071;51.478;5.710;2023-07-31T04:00:05;16.50;99.90
45339;DHT22;31071;51.478;5.710;2023-07-31T04:02:31;16.50;99.90
45339;DHT22;31071;51.478;5.710;2023-07-31T04:04:56;16.50;99.90
45339;DHT22;31071;51.478;5.710;2023-07-31T04:07:22;16.50;99.90
45339;DHT22;31071;51.478;5.710;2023-07-31T04:09:47;16.50;99.90
45339;DHT22;31071;51.478;5.710;2023-07-31T04:12:13;16.50;99.90
45339;DHT22;31071;51.478;5.710;2023-07-31T04:14:38;16.50;99.90
45339;DHT22;31071;51.478;5.710;2023-07-31T04:17:04;16.50;99.90
45339;DHT22;31071;51.478;5.710;2023-07-31T04:19:30;16.60;99.90
45339;DHT22;31071;51.478;5.710;2023-07-31T04:21:55;16.60;99.90
45339;DHT22;31071;51.478;5.710;2023-07-31T04:24:21;16.60;99.90
45339;DHT22;31071;51.478;5.710;2023-07-31T04:26:53;16.60;99.90
45339;DHT22;31071;51.478;5.710;2023-07-31T04:29:19;16.60;99.90
45339;DHT22;31071;51.478;5.710;2023-07-31T04:31:45;16.60;99.90
45339;DHT22;31071;51.478;5.710;2023-07-31T04:34:10;16.60;99.90
45339;DHT22;31071;51.478;5.710;2023-07-31T04:36:37;16.70;99.90
45339;DHT22;31071;51.478;5.710;2023-07-31T04:39:03;16.70;99.90
45339;DHT22;31071;51.478;5.710;2023-07-31T04:41:28;16.70;99.90
45339;DHT22;31071;51.478;5.710;2023-07-31T04:43:54;16.80;99.90
45339;DHT22;31071;51.478;5.710;2023-07-31T04:46:19;16.80;99.90
45339;DHT22;31071;51.478;5.710;2023-07-31T04:48:45;16.80;99.90
45339;DHT22;31071;51.478;5.710;2023-07-31T04:51:11;16.70;99.90
45339;DHT22;31071;51.478;5.710;2023-07-31T04:53:36;16.80;99.90
45339;DHT22;31071;51.478;5.710;2023-07-31T04:56:02;16.80;99.90
45339;DHT22;31071;51.478;5.710;2023-07-31T04:58:28;16.90;99.90
45339;DHT22;31071;51.478;5.710;2023-07-31T05:00:53;16.90;99.90
45339;DHT22;31071;51.478;5.710;2023-07-31T05:03:19;16.80;99.90
45339;DHT22;31071;51.478;5.710;2023-07-31T05:05:45;16.90;99.90
45339;DHT22;31071;51.478;5.710;2023-07-31T05:08:10;16.90;99.90
45339;DHT22;31071;51.478;5.710;2023-07-31T05:10:36;17.90;99.90
45339;DHT22;31071;51.478;5.710;2023-07-31T05:13:01;16.90;99.90
45339;DHT22;31071;51.478;5.710;2023-07-31T05:15:27;17.00;99.90
45339;DHT22;31071;51.478;5.710;2023-07-31T05:17:53;16.90;99.90
45339;DHT22;31071;51.478;5.710;2023-07-31T05:20:18;17.50;99.90
45339;DHT22;31071;51.478;5.710;2023-07-31T05:22:44;15.60;99.90
45339;DHT22;31071;51.478;5.710;2023-07-31T05:25:09;16.80;99.90
45339;DHT22;31071;51.478;5.710;2023-07-31T05:27:35;16.70;99.90
45339;DHT22;31071;51.478;5.710;2023-07-31T05:30:00;16.70;99.90
45339;DHT22;31071;51.478;5.710;2023-07-31T05:32:26;16.70;99.90
45339;DHT22;31071;51.478;5.710;2023-07-31T05:34:52;16.70;99.90
45339;DHT22;31071;51.478;5.710;2023-07-31T05:37:18;16.70;99.90
45339;DHT22;31071;51.478;5.710;2023-07-31T05:39:44;16.60;99.90
45339;DHT22;31071;51.478;5.710;2023-07-31T05:42:10;16.50;99.90
45339;DHT22;31071;51.478;5.710;2023-07-31T05:44:35;16.50;99.90
45339;DHT22;31071;51.478;5.710;2023-07-31T05:47:01;16.50;99.90
45339;DHT22;31071;51.478;5.710;2023-07-31T05:49:26;18.80;99.90
45339;DHT22;31071;51.478;5.710;2023-07-31T05:51:52;16.50;99.90
45339;DHT22;31071;51.478;5.710;2023-07-31T05:54:17;16.50;99.90
45339;DHT22;31071;51.478;5.710;2023-07-31T05:56:43;16.50;99.90
45339;DHT22;31071;51.478;5.710;2023-07-31T05:59:11;16.40;99.90
45339;DHT22;31071;51.478;5.710;2023-07-31T06:01:37;16.40;99.90
45339;DHT22;31071;51.478;5.710;2023-07-31T06:04:03;16.40;99.90
45339;DHT22;31071;51.478;5.710;2023-07-31T06:06:29;16.30;99.90
45339;DHT22;31071;51.478;5.710;2023-07-31T06:08:54;17.40;99.90
45339;DHT22;31071;51.478;5.710;2023-07-31T06:11:20;16.30;99.90
45339;DHT22;31071;51.478;5.710;2023-07-31T06:13:46;16.20;99.90
45339;DHT22;31071;51.478;5.710;2023-07-31T06:16:13;17.70;99.90
45339;DHT22;31071;51.478;5.710;2023-07-31T06:18:39;17.50;99.90
45339;DHT22;31071;51.478;5.710;2023-07-31T06:21:05;16.20;99.90
45339;DHT22;31071;51.478;5.710;2023-07-31T06:23:31;16.20;99.90
45339;DHT22;31071;51.478;5.710;2023-07-31T06:25:56;16.30;99.90
45339;DHT22;31071;51.478;5.710;2023-07-31T06:28:30;16.20;99.90
45339;DHT22;31071;51.478;5.710;2023-07-31T06:30:57;16.20;99.90
45339;DHT22;31071;51.478;5.710;2023-07-31T06:33:23;16.20;99.90
45339;DHT22;31071;51.478;5.710;2023-07-31T06:35:49;16.20;99.90
45339;DHT22;31071;51.478;5.710;2023-07-31T06:38:14;16.20;99.90
45339;DHT22;31071;51.478;5.710;2023-07-31T06:40:40;16.20;99.90
45339;DHT22;31071;51.478;5.710;2023-07-31T06:43:06;16.20;99.90
45339;DHT22;31071;51.478;5.710;2023-07-31T06:45:35;16.20;99.90
45339;DHT22;31071;51.478;5.710;2023-07-31T06:48:01;16.20;99.90
45339;DHT22;31071;51.478;5.710;2023-07-31T06:50:28;16.00;99.90
45339;DHT22;31071;51.478;5.710;2023-07-31T06:52:54;18.20;99.90
45339;DHT22;31071;51.478;5.710;2023-07-31T06:55:21;17.30;99.90
45339;DHT22;31071;51.478;5.710;2023-07-31T06:57:48;16.20;99.90
45339;DHT22;31071;51.478;5.710;2023-07-31T07:00:14;16.20;99.90
45339;DHT22;31071;51.478;5.710;2023-07-31T07:02:40;16.30;99.90
45339;DHT22;31071;51.478;5.710;2023-07-31T07:05:07;16.00;99.90
45339;DHT22;31071;51.478;5.710;2023-07-31T07:07:32;16.30;99.90
45339;DHT22;31071;51.478;5.710;2023-07-31T07:09:58;16.30;99.90
45339;DHT22;31071;51.478;5.710;2023-07-31T07:12:25;16.30;99.90
45339;DHT22;31071;51.478;5.710;2023-07-31T07:14:51;16.30;99.90
45339;DHT22;31071;51.478;5.710;2023-07-31T07:17:18;16.30;99.90
45339;DHT22;31071;51.478;5.710;2023-07-31T07:19:44;16.30;99.90
45339;DHT22;31071;51.478;5.710;2023-07-31T07:22:11;16.30;99.90
45339;DHT22;31071;51.478;5.710;2023-07-31T07:24:37;16.40;99.90
45339;DHT22;31071;51.478;5.710;2023-07-31T07:27:03;17.30;99.90
45339;DHT22;31071;51.478;5.710;2023-07-31T07:29:29;16.40;99.90
45339;DHT22;31071;51.478;5.710;2023-07-31T07:31:55;16.40;99.90
45339;DHT22;31071;51.478;5.710;2023-07-31T07:34:24;16.40;99.90
45339;DHT22;31071;51.478;5.710;2023-07-31T07:36:49;16.40;99.90
45339;DHT22;31071;51.478;5.710;2023-07-31T07:39:15;16.30;99.90
45339;DHT22;31071;51.478;5.710;2023-07-31T07:41:40;16.30;99.90
45339;DHT22;31071;51.478;5.710;2023-07-31T07:44:07;16.30;99.90
45339;DHT22;31071;51.478;5.710;2023-07-31T07:46:32;16.40;99.90
45339;DHT22;31071;51.478;5.710;2023-07-31T07:48:58;16.40;99.90
45339;DHT22;31071;51.478;5.710;2023-07-31T07:51:23;16.40;99.90
45339;DHT22;31071;51.478;5.710;2023-07-31T07:53:49;16.30;99.90
45339;DHT22;31071;51.478;5.710;2023-07-31T07:56:15;16.30;99.90
45339;DHT22;31071;51.478;5.710;2023-07-31T07:58:40;16.30;99.90
45339;DHT22;31071;51.478;5.710;2023-07-31T08:01:06;16.10;99.90
45339;DHT22;31071;51.478;5.710;2023-07-31T08:03:31;16.30;99.90
45339;DHT22;31071;51.478;5.710;2023-07-31T08:06:01;16.30;99.90
45339;DHT22;31071;51.478;5.710;2023-07-31T08:08:28;16.30;99.90
45339;DHT22;31071;51.478;5.710;2023-07-31T08:10:54;16.30;99.90
45339;DHT22;31071;51.478;5.710;2023-07-31T08:13:19;16.40;99.90
45339;DHT22;31071;51.478;5.710;2023-07-31T08:15:45;16.40;99.90
45339;DHT22;31071;51.478;5.710;2023-07-31T08:18:11;16.30;99.90
45339;DHT22;31071;51.478;5.710;2023-07-31T08:20:37;16.30;99.90
45339;DHT22;31071;51.478;5.710;2023-07-31T08:23:03;16.40;99.90
45339;DHT22;31071;51.478;5.710;2023-07-31T08:25:29;16.40;99.90
45339;DHT22;31071;51.478;5.710;2023-07-31T08:27:54;16.40;99.90
45339;DHT22;31071;51.478;5.710;2023-07-31T08:30:21;16.40;99.90
45339;DHT22;31071;51.478;5.710;2023-07-31T08:32:46;16.50;99.90
45339;DHT22;31071;51.478;5.710;2023-07-31T08:35:12;16.50;99.90
45339;DHT22;31071;51.478;5.710;2023-07-31T08:37:38;16.50;99.90
45339;DHT22;31071;51.478;5.710;2023-07-31T08:40:05;16.50;99.90
45339;DHT22;31071;51.478;5.710;2023-07-31T08:42:34;16.50;99.90
45339;DHT22;31071;51.478;5.710;2023-07-31T08:45:00;16.50;99.90
45339;DHT22;31071;51.478;5.710;2023-07-31T08:47:27;16.50;99.90
45339;DHT22;31071;51.478;5.710;2023-07-31T08:49:54;16.60;99.90
45339;DHT22;31071;51.478;5.710;2023-07-31T08:52:21;16.50;99.90
45339;DHT22;31071;51.478;5.710;2023-07-31T08:54:49;16.50;99.90
45339;DHT22;31071;51.478;5.710;2023-07-31T08:57:18;16.50;99.90
45339;DHT22;31071;51.478;5.710;2023-07-31T08:59:44;16.50;99.90
45339;DHT22;31071;51.478;5.710;2023-07-31T09:02:15;16.60;99.90
45339;DHT22;31071;51.478;5.710;2023-07-31T09:04:40;16.40;99.90
45339;DHT22;31071;51.478;5.710;2023-07-31T09:07:06;16.60;99.90
45339;DHT22;31071;51.478;5.710;2023-07-31T09:09:32;16.80;99.90
45339;DHT22;31071;51.478;5.710;2023-07-31T09:11:58;16.50;99.90
45339;DHT22;31071;51.478;5.710;2023-07-31T09:14:27;16.60;99.90
45339;DHT22;31071;51.478;5.710;2023-07-31T09:16:57;16.60;99.90
45339;DHT22;31071;51.478;5.710;2023-07-31T09:19:35;16.60;99.90
45339;DHT22;31071;51.478;5.710;2023-07-31T09:22:06;16.70;99.90
45339;DHT22;31071;51.478;5.710;2023-07-31T09:24:33;16.70;99.90
45339;DHT22;31071;51.478;5.710;2023-07-31T09:27:00;16.80;99.90
45339;DHT22;31071;51.478;5.710;2023-07-31T09:29:27;16.80;99.90
45339;DHT22;31071;51.478;5.710;2023-07-31T09:31:56;16.90;99.90
45339;DHT22;31071;51.478;5.710;2023-07-31T09:34:37;16.90;99.90
45339;DHT22;31071;51.478;5.710;2023-07-31T09:37:06;17.00;99.90
45339;DHT22;31071;51.478;5.710;2023-07-31T09:39:55;16.90;99.90
45339;DHT22;31071;51.478;5.710;2023-07-31T09:42:25;17.00;99.90
45339;DHT22;31071;51.478;5.710;2023-07-31T09:45:06;17.20;99.90
45339;DHT22;31071;51.478;5.710;2023-07-31T09:47:35;17.20;99.90
45339;DHT22;31071;51.478;5.710;2023-07-31T09:50:07;17.20;99.90
45339;DHT22;31071;51.478;5.710;2023-07-31T09:52:39;17.20;99.90
45339;DHT22;31071;51.478;5.710;2023-07-31T09:55:08;17.30;99.90
45339;DHT22;31071;51.478;5.710;2023-07-31T09:57:44;17.30;99.90
45339;DHT22;31071;51.478;5.710;2023-07-31T10:00:11;17.30;99.90
45339;DHT22;31071;51.478;5.710;2023-07-31T10:02:38;17.60;99.90
45339;DHT22;31071;51.478;5.710;2023-07-31T10:05:05;17.40;99.90
45339;DHT22;31071;51.478;5.710;2023-07-31T10:07:37;17.40;99.90
45339;DHT22;31071;51.478;5.710;2023-07-31T10:10:07;17.50;99.90
45339;DHT22;31071;51.478;5.710;2023-07-31T10:12:34;17.50;99.90
45339;DHT22;31071;51.478;5.710;2023-07-31T10:15:01;17.60;99.90
45339;DHT22;31071;51.478;5.710;2023-07-31T10:17:27;18.90;99.90
45339;DHT22;31071;51.478;5.710;2023-07-31T10:19:54;17.50;99.90
45339;DHT22;31071;51.478;5.710;2023-07-31T10:22:21;17.50;99.90
45339;DHT22;31071;51.478;5.710;2023-07-31T10:24:48;17.50;99.90
45339;DHT22;31071;51.478;5.710;2023-07-31T10:27:15;17.50;99.90
45339;DHT22;31071;51.478;5.710;2023-07-31T10:29:43;17.80;99.90
45339;DHT22;31071;51.478;5.710;2023-07-31T10:32:10;17.70;99.90
45339;DHT22;31071;51.478;5.710;2023-07-31T10:34:38;17.60;99.90
45339;DHT22;31071;51.478;5.710;2023-07-31T10:37:27;17.70;99.90
45339;DHT22;31071;51.478;5.710;2023-07-31T10:40:19;17.70;99.90
45339;DHT22;31071;51.478;5.710;2023-07-31T10:42:50;17.70;99.90
45339;DHT22;31071;51.478;5.710;2023-07-31T10:45:26;17.70;99.90
45339;DHT22;31071;51.478;5.710;2023-07-31T10:48:03;17.80;99.90
45339;DHT22;31071;51.478;5.710;2023-07-31T10:50:29;17.80;99.90
45339;DHT22;31071;51.478;5.710;2023-07-31T10:52:58;17.80;99.90
45339;DHT22;31071;51.478;5.710;2023-07-31T10:55:32;17.90;99.90
45339;DHT22;31071;51.478;5.710;2023-07-31T10:58:05;17.90;99.90
45339;DHT22;31071;51.478;5.710;2023-07-31T11:00:32;18.00;99.90
45339;DHT22;31071;51.478;5.710;2023-07-31T11:03:04;18.00;99.90
45339;DHT22;31071;51.478;5.710;2023-07-31T11:05:46;18.20;99.90
45339;DHT22;31071;51.478;5.710;2023-07-31T11:08:35;18.30;99.90
45339;DHT22;31071;51.478;5.710;2023-07-31T11:11:08;18.30;99.90
45339;DHT22;31071;51.478;5.710;2023-07-31T11:13:43;18.40;99.90
45339;DHT22;31071;51.478;5.710;2023-07-31T11:16:11;18.40;99.90
45339;DHT22;31071;51.478;5.710;2023-07-31T11:18:42;18.60;99.90
45339;DHT22;31071;51.478;5.710;2023-07-31T11:21:11;18.60;99.90
45339;DHT22;31071;51.478;5.710;2023-07-31T11:23:37;18.80;99.90
45339;DHT22;31071;51.478;5.710;2023-07-31T11:26:05;18.90;99.90
45339;DHT22;31071;51.478;5.710;2023-07-31T11:28:32;19.00;99.90
45339;DHT22;31071;51.478;5.710;2023-07-31T11:30:59;19.00;99.90
45339;DHT22;31071;51.478;5.710;2023-07-31T11:33:25;19.00;99.90
45339;DHT22;31071;51.478;5.710;2023-07-31T11:35:51;18.80;99.90
45339;DHT22;31071;51.478;5.710;2023-07-31T11:38:36;18.80;99.90
45339;DHT22;31071;51.478;5.710;2023-07-31T11:41:04;18.90;99.90
45339;DHT22;31071;51.478;5.710;2023-07-31T11:43:31;18.90;99.90
45339;DHT22;31071;51.478;5.710;2023-07-31T11:45:58;19.10;99.90
45339;DHT22;31071;51.478;5.710;2023-07-31T11:48:30;19.10;99.90
45339;DHT22;31071;51.478;5.710;2023-07-31T11:51:03;19.40;99.90
45339;DHT22;31071;51.478;5.710;2023-07-31T11:53:53;19.20;99.90
45339;DHT22;31071;51.478;5.710;2023-07-31T11:56:19;19.10;99.90
45339;DHT22;31071;51.478;5.710;2023-07-31T11:58:51;19.00;99.90
45339;DHT22;31071;51.478;5.710;2023-07-31T12:01:21;18.90;99.90
45339;DHT22;31071;51.478;5.710;2023-07-31T12:03:48;18.70;99.90
45339;DHT22;31071;51.478;5.710;2023-07-31T12:06:14;19.10;99.90
45339;DHT22;31071;51.478;5.710;2023-07-31T12:08:40;18.60;99.90
45339;DHT22;31071;51.478;5.710;2023-07-31T12:11:07;18.50;99.90
45339;DHT22;31071;51.478;5.710;2023-07-31T12:13:35;18.50;99.90
45339;DHT22;31071;51.478;5.710;2023-07-31T12:16:01;19.50;99.90
45339;DHT22;31071;51.478;5.710;2023-07-31T12:18:30;18.50;99.90
45339;DHT22;31071;51.478;5.710;2023-07-31T12:20:59;18.50;99.90
45339;DHT22;31071;51.478;5.710;2023-07-31T12:23:28;18.50;99.90
45339;DHT22;31071;51.478;5.710;2023-07-31T12:26:13;18.40;99.90
45339;DHT22;31071;51.478;5.710;2023-07-31T12:28:46;18.30;99.90
45339;DHT22;31071;51.478;5.710;2023-07-31T12:31:22;18.30;99.90
45339;DHT22;31071;51.478;5.710;2023-07-31T12:33:50;18.30;99.90
45339;DHT22;31071;51.478;5.710;2023-07-31T12:36:22;18.80;99.90
45339;DHT22;31071;51.478;5.710;2023-07-31T12:38:49;18.50;99.90
45339;DHT22;31071;51.478;5.710;2023-07-31T12:41:15;18.50;99.90
45339;DHT22;31071;51.478;5.710;2023-07-31T12:43:43;19.10;99.90
45339;DHT22;31071;51.478;5.710;2023-07-31T12:46:09;18.50;99.90
45339;DHT22;31071;51.478;5.710;2023-07-31T12:48:35;18.60;99.90
45339;DHT22;31071;51.478;5.710;2023-07-31T12:51:01;18.70;99.90
45339;DHT22;31071;51.478;5.710;2023-07-31T12:53:27;18.70;99.90
45339;DHT22;31071;51.478;5.710;2023-07-31T12:55:53;18.70;99.90
45339;DHT22;31071;51.478;5.710;2023-07-31T12:58:18;19.30;99.90
45339;DHT22;31071;51.478;5.710;2023-07-31T13:00:44;18.70;99.90
45339;DHT22;31071;51.478;5.710;2023-07-31T13:03:09;18.80;99.90
45339;DHT22;31071;51.478;5.710;2023-07-31T13:05:35;18.80;99.90
45339;DHT22;31071;51.478;5.710;2023-07-31T13:08:00;18.90;99.90
45339;DHT22;31071;51.478;5.710;2023-07-31T13:10:27;18.90;99.90
45339;DHT22;31071;51.478;5.710;2023-07-31T13:12:54;19.00;99.90
45339;DHT22;31071;51.478;5.710;2023-07-31T13:15:19;19.00;99.90
45339;DHT22;31071;51.478;5.710;2023-07-31T13:17:46;19.00;99.90
45339;DHT22;31071;51.478;5.710;2023-07-31T13:20:11;19.00;99.90
45339;DHT22;31071;51.478;5.710;2023-07-31T13:22:37;19.10;99.90
45339;DHT22;31071;51.478;5.710;2023-07-31T13:25:03;19.20;99.90
45339;DHT22;31071;51.478;5.710;2023-07-31T13:27:28;19.20;99.90
45339;DHT22;31071;51.478;5.710;2023-07-31T13:29:54;19.20;99.90
45339;DHT22;31071;51.478;5.710;2023-07-31T13:32:20;19.20;99.90
45339;DHT22;31071;51.478;5.710;2023-07-31T13:34:47;19.30;99.90
45339;DHT22;31071;51.478;5.710;2023-07-31T13:37:13;19.40;99.90
45339;DHT22;31071;51.478;5.710;2023-07-31T13:39:39;19.40;99.90
45339;DHT22;31071;51.478;5.710;2023-07-31T13:42:06;19.30;99.90
45339;DHT22;31071;51.478;5.710;2023-07-31T13:44:34;19.30;99.90
45339;DHT22;31071;51.478;5.710;2023-07-31T13:46:59;19.40;99.90
45339;DHT22;31071;51.478;5.710;2023-07-31T13:49:26;19.50;99.90
45339;DHT22;31071;51.478;5.710;2023-07-31T13:51:52;19.50;99.90
45339;DHT22;31071;51.478;5.710;2023-07-31T13:54:17;19.40;99.90
45339;DHT22;31071;51.478;5.710;2023-07-31T13:56:43;19.30;99.90
45339;DHT22;31071;51.478;5.710;2023-07-31T13:59:09;19.20;99.90
45339;DHT22;31071;51.478;5.710;2023-07-31T14:01:35;19.20;99.90
45339;DHT22;31071;51.478;5.710;2023-07-31T14:04:00;19.10;99.90
45339;DHT22;31071;51.478;5.710;2023-07-31T14:06:26;19.10;99.90
45339;DHT22;31071;51.478;5.710;2023-07-31T14:08:51;20.30;99.90
45339;DHT22;31071;51.478;5.710;2023-07-31T14:11:17;18.70;99.90
45339;DHT22;31071;51.478;5.710;2023-07-31T14:13:43;18.50;99.90
45339;DHT22;31071;51.478;5.710;2023-07-31T14:16:08;18.40;99.90
45339;DHT22;31071;51.478;5.710;2023-07-31T14:18:34;18.30;99.90
45339;DHT22;31071;51.478;5.710;2023-07-31T14:21:00;18.20;99.90
45339;DHT22;31071;51.478;5.710;2023-07-31T14:23:25;18.10;99.90
45339;DHT22;31071;51.478;5.710;2023-07-31T14:25:51;18.10;99.90
45339;DHT22;31071;51.478;5.710;2023-07-31T14:28:16;18.00;99.90
45339;DHT22;31071;51.478;5.710;2023-07-31T14:30:44;18.00;99.90
45339;DHT22;31071;51.478;5.710;2023-07-31T14:33:10;18.00;99.90
45339;DHT22;31071;51.478;5.710;2023-07-31T14:35:35;17.90;99.90
45339;DHT22;31071;51.478;5.710;2023-07-31T14:38:01;18.00;99.90
45339;DHT22;31071;51.478;5.710;2023-07-31T14:40:27;18.00;99.90
45339;DHT22;31071;51.478;5.710;2023-07-31T14:42:52;18.00;99.90
45339;DHT22;31071;51.478;5.710;2023-07-31T14:45:18;18.00;99.90
45339;DHT22;31071;51.478;5.710;2023-07-31T14:47:43;18.20;99.90
45339;DHT22;31071;51.478;5.710;2023-07-31T14:50:09;18.10;99.90
45339;DHT22;31071;51.478;5.710;2023-07-31T14:52:35;18.10;99.90
45339;DHT22;31071;51.478;5.710;2023-07-31T14:55:00;18.00;99.90
45339;DHT22;31071;51.478;5.710;2023-07-31T14:57:26;17.50;99.90
45339;DHT22;31071;51.478;5.710;2023-07-31T14:59:51;18.00;99.90
45339;DHT22;31071;51.478;5.710;2023-07-31T15:02:17;18.20;99.90
45339;DHT22;31071;51.478;5.710;2023-07-31T15:04:45;18.00;99.90
45339;DHT22;31071;51.478;5.710;2023-07-31T15:07:11;18.00;99.90
45339;DHT22;31071;51.478;5.710;2023-07-31T15:09:36;17.90;99.90
45339;DHT22;31071;51.478;5.710;2023-07-31T15:12:02;18.00;99.90
45339;DHT22;31071;51.478;5.710;2023-07-31T15:14:28;18.00;99.90
45339;DHT22;31071;51.478;5.710;2023-07-31T15:16:54;17.90;99.90
45339;DHT22;31071;51.478;5.710;2023-07-31T15:19:25;17.80;99.90
45339;DHT22;31071;51.478;5.710;2023-07-31T15:21:51;17.90;99.90
45339;DHT22;31071;51.478;5.710;2023-07-31T15:24:17;17.90;99.90
45339;DHT22;31071;51.478;5.710;2023-07-31T15:26:42;17.80;99.90
45339;DHT22;31071;51.478;5.710;2023-07-31T15:29:08;17.80;99.90
45339;DHT22;31071;51.478;5.710;2023-07-31T15:31:35;17.30;99.90
45339;DHT22;31071;51.478;5.710;2023-07-31T15:34:01;18.70;99.90